sensor_id;sensor_type;location;lat;lon;timestamp;P1;durP1;ratioP1;P2;durP2;ratioP2
77705;SDS011;66874;45.274;5.880;2023-04-08T02:00:58;5.57;;;2.35;;
77705;SDS011;66874;45.274;5.880;2023-04-08T02:03:24;2.88;;;1.77;;
77705;SDS011;66874;45.274;5.880;2023-04-08T02:05:51;4.75;;;2.40;;
77705;SDS011;66874;45.274;5.880;2023-04-08T02:08:16;5.18;;;2.20;;
77705;SDS011;66874;45.274;5.880;2023-04-08T02:10:42;5.22;;;2.38;;
77705;SDS011;66874;45.274;5.880;2023-04-08T02:13:07;8.20;;;2.33;;
77705;SDS011;66874;45.274;5.880;2023-04-08T02:15:33;5.47;;;2.65;;
77705;SDS011;66874;45.274;5.880;2023-04-08T02:18:04;5.13;;;2.67;;
77705;SDS011;66874;45.274;5.880;2023-04-08T02:20:42;4.97;;;2.50;;
77705;SDS011;66874;45.274;5.880;2023-04-08T02:23:13;5.63;;;2.72;;
77705;SDS011;66874;45.274;5.880;2023-04-08T02:25:44;6.07;;;3.10;;
77705;SDS011;66874;45.274;5.880;2023-04-08T02:28:11;4.45;;;2.53;;
77705;SDS011;66874;45.274;5.880;2023-04-08T05:32:11;19.15;;;6.60;;
77705;SDS011;66874;45.274;5.880;2023-04-08T05:34:37;23.33;;;9.63;;
77705;SDS011;66874;45.274;5.880;2023-04-08T05:37:02;23.42;;;11.48;;
77705;SDS011;66874;45.274;5.880;2023-04-08T05:39:27;23.45;;;9.75;;
77705;SDS011;66874;45.274;5.880;2023-04-08T05:41:53;22.13;;;10.38;;
77705;SDS011;66874;45.274;5.880;2023-04-08T05:44:18;12.77;;;5.68;;
77705;SDS011;66874;45.274;5.880;2023-04-08T05:46:44;12.05;;;5.72;;
77705;SDS011;66874;45.274;5.880;2023-04-08T05:49:09;9.63;;;5.60;;
77705;SDS011;66874;45.274;5.880;2023-04-08T05:51:36;18.23;;;5.35;;
77705;SDS011;66874;45.274;5.880;2023-04-08T05:54:01;8.93;;;4.45;;
77705;SDS011;66874;45.274;5.880;2023-04-08T05:56:27;8.20;;;4.35;;
77705;SDS011;66874;45.274;5.880;2023-04-08T05:58:52;9.00;;;4.68;;
77705;SDS011;66874;45.274;5.880;2023-04-08T06:01:17;11.95;;;5.50;;
77705;SDS011;66874;45.274;5.880;2023-04-08T06:03:43;8.70;;;4.85;;
77705;SDS011;66874;45.274;5.880;2023-04-08T06:06:09;12.25;;;4.80;;
77705;SDS011;66874;45.274;5.880;2023-04-08T06:08:38;7.50;;;4.68;;
77705;SDS011;66874;45.274;5.880;2023-04-08T06:11:04;9.48;;;4.75;;
77705;SDS011;66874;45.274;5.880;2023-04-08T06:13:30;7.68;;;4.25;;
77705;SDS011;66874;45.274;5.880;2023-04-08T06:15:55;9.88;;;5.20;;
77705;SDS011;66874;45.274;5.880;2023-04-08T06:18:21;8.63;;;4.45;;
77705;SDS011;66874;45.274;5.880;2023-04-08T06:20:46;8.80;;;4.57;;
77705;SDS011;66874;45.274;5.880;2023-04-08T06:23:12;7.20;;;4.40;;
77705;SDS011;66874;45.274;5.880;2023-04-08T06:25:37;7.93;;;4.70;;
77705;SDS011;66874;45.274;5.880;2023-04-08T06:28:03;6.03;;;4.38;;
77705;SDS011;66874;45.274;5.880;2023-04-08T06:30:28;8.75;;;4.65;;
77705;SDS011;66874;45.274;5.880;2023-04-08T06:32:54;8.35;;;4.28;;
77705;SDS011;66874;45.274;5.880;2023-04-08T06:35:19;8.75;;;5.20;;
77705;SDS011;66874;45.274;5.880;2023-04-08T06:37:45;8.18;;;4.38;;
77705;SDS011;66874;45.274;5.880;2023-04-08T06:40:10;8.82;;;5.22;;
77705;SDS011;66874;45.274;5.880;2023-04-08T06:42:35;8.90;;;4.68;;
77705;SDS011;66874;45.274;5.880;2023-04-08T06:45:02;7.95;;;5.20;;
77705;SDS011;66874;45.274;5.880;2023-04-08T06:47:28;9.88;;;4.30;;
77705;SDS011;66874;45.274;5.880;2023-04-08T06:49:54;7.15;;;4.55;;
77705;SDS011;66874;45.274;5.880;2023-04-08T06:52:20;9.02;;;4.53;;
77705;SDS011;66874;45.274;5.880;2023-04-08T06:54:45;6.15;;;3.90;;
77705;SDS011;66874;45.274;5.880;2023-04-08T06:57:11;8.13;;;4.40;;
77705;SDS011;66874;45.274;5.880;2023-04-08T06:59:36;9.20;;;3.90;;
77705;SDS011;66874;45.274;5.880;2023-04-08T07:02:02;7.65;;;4.03;;
77705;SDS011;66874;45.274;5.880;2023-04-08T07:04:27;6.63;;;4.38;;
77705;SDS011;66874;45.274;5.880;2023-04-08T07:06:52;6.95;;;4.28;;
77705;SDS011;66874;45.274;5.880;2023-04-08T07:09:18;8.45;;;3.97;;
77705;SDS011;66874;45.274;5.880;2023-04-08T07:11:43;10.15;;;4.30;;
77705;SDS011;66874;45.274;5.880;2023-04-08T07:14:09;5.00;;;3.42;;
77705;SDS011;66874;45.274;5.880;2023-04-08T07:16:34;6.00;;;3.72;;
77705;SDS011;66874;45.274;5.880;2023-04-08T07:18:59;6.28;;;3.53;;
77705;SDS011;66874;45.274;5.880;2023-04-08T07:21:25;6.35;;;4.22;;
77705;SDS011;66874;45.274;5.880;2023-04-08T07:23:51;6.78;;;4.25;;
77705;SDS011;66874;45.274;5.880;2023-04-08T07:26:16;7.15;;;3.80;;
77705;SDS011;66874;45.274;5.880;2023-04-08T07:28:42;5.43;;;3.80;;
77705;SDS011;66874;45.274;5.880;2023-04-08T07:31:11;5.72;;;3.63;;
77705;SDS011;66874;45.274;5.880;2023-04-08T07:33:38;6.13;;;3.75;;
77705;SDS011;66874;45.274;5.880;2023-04-08T07:36:03;5.40;;;3.63;;
77705;SDS011;66874;45.274;5.880;2023-04-08T07:38:29;6.07;;;3.80;;
77705;SDS011;66874;45.274;5.880;2023-04-08T07:40:54;8.07;;;4.32;;
77705;SDS011;66874;45.274;5.880;2023-04-08T07:43:19;7.63;;;4.45;;
77705;SDS011;66874;45.274;5.880;2023-04-08T07:45:45;7.25;;;4.43;;
77705;SDS011;66874;45.274;5.880;2023-04-08T07:48:11;6.65;;;3.90;;
77705;SDS011;66874;45.274;5.880;2023-04-08T07:50:36;6.32;;;3.80;;
77705;SDS011;66874;45.274;5.880;2023-04-08T07:53:02;6.25;;;3.85;;
77705;SDS011;66874;45.274;5.880;2023-04-08T07:55:27;5.60;;;3.53;;
77705;SDS011;66874;45.274;5.880;2023-04-08T07:57:57;6.25;;;3.65;;
77705;SDS011;66874;45.274;5.880;2023-04-08T08:00:23;5.78;;;3.20;;
77705;SDS011;66874;45.274;5.880;2023-04-08T08:02:48;5.78;;;4.28;;
77705;SDS011;66874;45.274;5.880;2023-04-08T08:05:13;5.18;;;3.60;;
77705;SDS011;66874;45.274;5.880;2023-04-08T08:07:39;4.53;;;3.38;;
77705;SDS011;66874;45.274;5.880;2023-04-08T08:10:04;6.05;;;3.55;;
77705;SDS011;66874;45.274;5.880;2023-04-08T08:12:30;10.18;;;6.22;;
77705;SDS011;66874;45.274;5.880;2023-04-08T08:14:56;13.30;;;5.65;;
77705;SDS011;66874;45.274;5.880;2023-04-08T08:17:23;6.22;;;3.97;;
77705;SDS011;66874;45.274;5.880;2023-04-08T08:19:49;7.25;;;3.78;;
77705;SDS011;66874;45.274;5.880;2023-04-08T08:22:15;10.40;;;4.55;;
77705;SDS011;66874;45.274;5.880;2023-04-08T08:24:40;13.60;;;6.68;;
77705;SDS011;66874;45.274;5.880;2023-04-08T08:27:08;6.85;;;4.10;;
77705;SDS011;66874;45.274;5.880;2023-04-08T08:29:34;6.95;;;4.25;;
77705;SDS011;66874;45.274;5.880;2023-04-08T08:32:01;5.13;;;3.28;;
77705;SDS011;66874;45.274;5.880;2023-04-08T08:34:27;4.97;;;3.53;;
77705;SDS011;66874;45.274;5.880;2023-04-08T08:36:53;7.20;;;3.70;;
77705;SDS011;66874;45.274;5.880;2023-04-08T08:39:18;8.20;;;4.03;;
77705;SDS011;66874;45.274;5.880;2023-04-08T08:41:44;5.53;;;3.20;;
77705;SDS011;66874;45.274;5.880;2023-04-08T08:44:10;5.80;;;4.05;;
77705;SDS011;66874;45.274;5.880;2023-04-08T08:46:36;5.70;;;4.05;;
77705;SDS011;66874;45.274;5.880;2023-04-08T08:49:08;7.43;;;4.18;;
77705;SDS011;66874;45.274;5.880;2023-04-08T08:51:33;5.43;;;3.70;;
77705;SDS011;66874;45.274;5.880;2023-04-08T08:54:02;7.35;;;4.18;;
77705;SDS011;66874;45.274;5.880;2023-04-08T08:56:28;6.97;;;3.72;;
77705;SDS011;66874;45.274;5.880;2023-04-08T08:58:54;5.25;;;3.63;;
77705;SDS011;66874;45.274;5.880;2023-04-08T09:01:36;7.03;;;3.70;;
77705;SDS011;66874;45.274;5.880;2023-04-08T09:06:36;5.40;;;3.63;;
77705;SDS011;66874;45.274;5.880;2023-04-08T09:09:02;5.82;;;3.03;;
77705;SDS011;66874;45.274;5.880;2023-04-08T09:11:30;5.18;;;3.65;;
77705;SDS011;66874;45.274;5.880;2023-04-08T09:13:55;5.25;;;3.63;;
77705;SDS011;66874;45.274;5.880;2023-04-08T09:16:21;4.65;;;3.45;;
77705;SDS011;66874;45.274;5.880;2023-04-08T09:18:48;4.93;;;3.70;;
77705;SDS011;66874;45.274;5.880;2023-04-08T09:21:14;6.05;;;3.85;;
77705;SDS011;66874;45.274;5.880;2023-04-08T09:26:16;5.47;;;3.85;;
77705;SDS011;66874;45.274;5.880;2023-04-08T09:28:56;6.55;;;3.63;;
77705;SDS011;66874;45.274;5.880;2023-04-08T09:31:31;6.40;;;4.00;;
77705;SDS011;66874;45.274;5.880;2023-04-08T09:33:58;7.80;;;4.75;;
77705;SDS011;66874;45.274;5.880;2023-04-08T09:36:26;5.32;;;4.13;;
77705;SDS011;66874;45.274;5.880;2023-04-08T09:38:52;6.88;;;4.50;;
77705;SDS011;66874;45.274;5.880;2023-04-08T09:41:22;8.90;;;4.28;;
77705;SDS011;66874;45.274;5.880;2023-04-08T09:43:53;7.00;;;3.72;;
77705;SDS011;66874;45.274;5.880;2023-04-08T09:47:07;5.10;;;3.50;;
77705;SDS011;66874;45.274;5.880;2023-04-08T09:54:21;6.70;;;4.07;;
77705;SDS011;66874;45.274;5.880;2023-04-08T09:56:58;4.57;;;3.72;;
77705;SDS011;66874;45.274;5.880;2023-04-08T09:59:29;4.88;;;3.30;;
77705;SDS011;66874;45.274;5.880;2023-04-08T10:01:57;4.40;;;3.40;;
77705;SDS011;66874;45.274;5.880;2023-04-08T10:04:29;6.05;;;3.42;;
77705;SDS011;66874;45.274;5.880;2023-04-08T10:07:01;5.28;;;3.50;;
77705;SDS011;66874;45.274;5.880;2023-04-08T10:09:30;6.63;;;3.53;;
77705;SDS011;66874;45.274;5.880;2023-04-08T10:11:56;5.20;;;2.78;;
77705;SDS011;66874;45.274;5.880;2023-04-08T10:14:22;4.95;;;3.00;;
77705;SDS011;66874;45.274;5.880;2023-04-08T10:16:47;3.67;;;2.78;;
77705;SDS011;66874;45.274;5.880;2023-04-08T10:19:34;6.40;;;3.10;;
77705;SDS011;66874;45.274;5.880;2023-04-08T10:27:39;3.47;;;2.80;;
77705;SDS011;66874;45.274;5.880;2023-04-08T10:32:52;3.67;;;3.28;;
77705;SDS011;66874;45.274;5.880;2023-04-08T10:35:31;4.90;;;2.92;;
77705;SDS011;66874;45.274;5.880;2023-04-08T10:37:59;39.22;;;18.40;;
77705;SDS011;66874;45.274;5.880;2023-04-08T10:40:25;4.03;;;2.45;;
77705;SDS011;66874;45.274;5.880;2023-04-08T10:42:54;3.17;;;2.30;;
77705;SDS011;66874;45.274;5.880;2023-04-08T10:45:20;3.97;;;2.88;;
77705;SDS011;66874;45.274;5.880;2023-04-08T10:47:46;4.50;;;3.05;;
77705;SDS011;66874;45.274;5.880;2023-04-08T10:50:12;3.85;;;3.15;;
77705;SDS011;66874;45.274;5.880;2023-04-08T10:52:52;4.30;;;2.80;;
77705;SDS011;66874;45.274;5.880;2023-04-08T10:55:25;8.68;;;3.55;;
77705;SDS011;66874;45.274;5.880;2023-04-08T10:57:51;5.38;;;2.90;;
77705;SDS011;66874;45.274;5.880;2023-04-08T11:00:18;4.22;;;3.03;;
77705;SDS011;66874;45.274;5.880;2023-04-08T11:03:05;3.35;;;2.97;;
77705;SDS011;66874;45.274;5.880;2023-04-08T11:05:32;4.10;;;3.13;;
77705;SDS011;66874;45.274;5.880;2023-04-08T11:07:58;4.72;;;3.08;;
77705;SDS011;66874;45.274;5.880;2023-04-08T11:10:24;4.82;;;3.08;;
77705;SDS011;66874;45.274;5.880;2023-04-08T11:12:51;4.47;;;2.78;;
77705;SDS011;66874;45.274;5.880;2023-04-08T11:15:18;4.72;;;2.90;;
77705;SDS011;66874;45.274;5.880;2023-04-08T11:17:43;3.60;;;2.40;;
77705;SDS011;66874;45.274;5.880;2023-04-08T11:20:09;3.30;;;2.40;;
77705;SDS011;66874;45.274;5.880;2023-04-08T11:22:35;3.47;;;2.53;;
77705;SDS011;66874;45.274;5.880;2023-04-08T11:25:00;4.03;;;2.60;;
77705;SDS011;66874;45.274;5.880;2023-04-08T11:27:26;2.35;;;1.50;;
77705;SDS011;66874;45.274;5.880;2023-04-08T11:29:55;1.92;;;1.23;;
77705;SDS011;66874;45.274;5.880;2023-04-08T11:32:21;2.05;;;1.50;;
77705;SDS011;66874;45.274;5.880;2023-04-08T11:34:47;3.83;;;1.75;;
77705;SDS011;66874;45.274;5.880;2023-04-08T11:37:13;2.25;;;2.05;;
77705;SDS011;66874;45.274;5.880;2023-04-08T11:39:42;2.28;;;1.88;;
77705;SDS011;66874;45.274;5.880;2023-04-08T11:42:08;2.88;;;1.75;;
77705;SDS011;66874;45.274;5.880;2023-04-08T11:44:33;2.25;;;1.90;;
77705;SDS011;66874;45.274;5.880;2023-04-08T11:46:59;2.88;;;2.50;;
77705;SDS011;66874;45.274;5.880;2023-04-08T11:49:26;3.30;;;2.17;;
77705;SDS011;66874;45.274;5.880;2023-04-08T11:54:28;2.17;;;1.85;;
77705;SDS011;66874;45.274;5.880;2023-04-08T11:56:56;2.20;;;2.00;;
77705;SDS011;66874;45.274;5.880;2023-04-08T11:59:22;2.33;;;1.92;;
77705;SDS011;66874;45.274;5.880;2023-04-08T12:01:48;2.67;;;2.20;;
77705;SDS011;66874;45.274;5.880;2023-04-08T12:04:13;3.03;;;2.25;;
77705;SDS011;66874;45.274;5.880;2023-04-08T12:06:39;3.15;;;2.22;;
77705;SDS011;66874;45.274;5.880;2023-04-08T12:09:07;3.85;;;1.92;;
77705;SDS011;66874;45.274;5.880;2023-04-08T12:11:33;2.20;;;2.00;;
77705;SDS011;66874;45.274;5.880;2023-04-08T12:13:58;2.63;;;1.73;;
77705;SDS011;66874;45.274;5.880;2023-04-08T12:16:24;3.20;;;2.38;;
77705;SDS011;66874;45.274;5.880;2023-04-08T12:18:49;3.53;;;2.05;;
77705;SDS011;66874;45.274;5.880;2023-04-08T12:21:15;3.67;;;1.67;;
77705;SDS011;66874;45.274;5.880;2023-04-08T12:23:40;1.35;;;1.25;;
77705;SDS011;66874;45.274;5.880;2023-04-08T12:26:06;1.65;;;1.20;;
77705;SDS011;66874;45.274;5.880;2023-04-08T12:28:32;1.48;;;1.10;;
77705;SDS011;66874;45.274;5.880;2023-04-08T12:30:58;1.10;;;0.80;;
77705;SDS011;66874;45.274;5.880;2023-04-08T12:33:24;2.00;;;0.88;;
77705;SDS011;66874;45.274;5.880;2023-04-08T12:35:49;1.00;;;0.80;;
77705;SDS011;66874;45.274;5.880;2023-04-08T12:38:15;1.58;;;0.82;;
77705;SDS011;66874;45.274;5.880;2023-04-08T12:40:40;1.67;;;1.10;;
77705;SDS011;66874;45.274;5.880;2023-04-08T12:43:06;1.95;;;1.10;;
77705;SDS011;66874;45.274;5.880;2023-04-08T12:45:31;2.17;;;1.00;;
77705;SDS011;66874;45.274;5.880;2023-04-08T12:47:56;1.00;;;0.93;;
77705;SDS011;66874;45.274;5.880;2023-04-08T12:50:22;1.27;;;0.85;;
77705;SDS011;66874;45.274;5.880;2023-04-08T12:52:47;1.25;;;0.90;;
77705;SDS011;66874;45.274;5.880;2023-04-08T12:55:13;1.92;;;1.13;;
77705;SDS011;66874;45.274;5.880;2023-04-08T12:57:38;2.63;;;0.93;;
77705;SDS011;66874;45.274;5.880;2023-04-08T13:00:03;1.00;;;0.80;;
77705;SDS011;66874;45.274;5.880;2023-04-08T13:02:29;1.20;;;0.90;;
77705;SDS011;66874;45.274;5.880;2023-04-08T13:04:55;1.50;;;0.90;;
77705;SDS011;66874;45.274;5.880;2023-04-08T13:07:20;1.90;;;0.82;;
77705;SDS011;66874;45.274;5.880;2023-04-08T13:09:46;1.30;;;0.88;;
77705;SDS011;66874;45.274;5.880;2023-04-08T13:12:11;0.70;;;0.70;;
77705;SDS011;66874;45.274;5.880;2023-04-08T13:14:38;3.90;;;0.98;;
77705;SDS011;66874;45.274;5.880;2023-04-08T13:17:06;0.75;;;0.70;;
77705;SDS011;66874;45.274;5.880;2023-04-08T13:19:32;2.45;;;0.82;;
77705;SDS011;66874;45.274;5.880;2023-04-08T13:21:57;1.20;;;0.93;;
77705;SDS011;66874;45.274;5.880;2023-04-08T13:24:23;0.82;;;0.77;;
77705;SDS011;66874;45.274;5.880;2023-04-08T13:26:48;1.55;;;0.80;;
77705;SDS011;66874;45.274;5.880;2023-04-08T13:29:13;2.45;;;0.93;;
77705;SDS011;66874;45.274;5.880;2023-04-08T13:31:39;2.90;;;0.90;;
77705;SDS011;66874;45.274;5.880;2023-04-08T13:34:04;1.02;;;0.70;;
77705;SDS011;66874;45.274;5.880;2023-04-08T13:36:30;0.93;;;0.77;;
77705;SDS011;66874;45.274;5.880;2023-04-08T13:38:56;1.73;;;0.80;;
77705;SDS011;66874;45.274;5.880;2023-04-08T13:41:21;1.58;;;0.65;;
77705;SDS011;66874;45.274;5.880;2023-04-08T13:43:47;1.00;;;0.80;;
77705;SDS011;66874;45.274;5.880;2023-04-08T13:46:12;0.70;;;0.60;;
77705;SDS011;66874;45.274;5.880;2023-04-08T13:48:38;0.85;;;0.75;;
77705;SDS011;66874;45.274;5.880;2023-04-08T13:51:03;1.75;;;0.88;;
77705;SDS011;66874;45.274;5.880;2023-04-08T13:53:29;1.00;;;0.60;;
77705;SDS011;66874;45.274;5.880;2023-04-08T13:55:54;0.70;;;0.60;;
77705;SDS011;66874;45.274;5.880;2023-04-08T13:58:22;2.97;;;0.80;;
77705;SDS011;66874;45.274;5.880;2023-04-08T14:00:51;1.42;;;0.80;;
77705;SDS011;66874;45.274;5.880;2023-04-08T14:03:16;2.78;;;0.73;;
77705;SDS011;66874;45.274;5.880;2023-04-08T14:05:42;1.38;;;0.93;;
77705;SDS011;66874;45.274;5.880;2023-04-08T14:08:07;1.55;;;1.23;;
77705;SDS011;66874;45.274;5.880;2023-04-08T14:10:33;1.05;;;0.70;;
77705;SDS011;66874;45.274;5.880;2023-04-08T14:12:58;1.80;;;0.95;;
77705;SDS011;66874;45.274;5.880;2023-04-08T14:15:24;2.67;;;1.00;;
77705;SDS011;66874;45.274;5.880;2023-04-08T14:17:49;1.83;;;0.93;;
77705;SDS011;66874;45.274;5.880;2023-04-08T14:20:15;1.35;;;0.70;;
77705;SDS011;66874;45.274;5.880;2023-04-08T14:22:40;1.50;;;1.00;;
77705;SDS011;66874;45.274;5.880;2023-04-08T14:25:06;1.17;;;0.70;;
77705;SDS011;66874;45.274;5.880;2023-04-08T14:27:32;2.95;;;0.68;;
77705;SDS011;66874;45.274;5.880;2023-04-08T14:29:57;1.05;;;0.70;;
77705;SDS011;66874;45.274;5.880;2023-04-08T14:32:22;0.70;;;0.60;;
77705;SDS011;66874;45.274;5.880;2023-04-08T14:34:48;1.45;;;1.00;;
77705;SDS011;66874;45.274;5.880;2023-04-08T14:37:13;1.10;;;0.98;;
77705;SDS011;66874;45.274;5.880;2023-04-08T14:39:39;2.15;;;0.70;;
77705;SDS011;66874;45.274;5.880;2023-04-08T14:42:04;0.88;;;0.73;;
77705;SDS011;66874;45.274;5.880;2023-04-08T14:44:30;1.88;;;0.75;;
77705;SDS011;66874;45.274;5.880;2023-04-08T14:46:55;1.23;;;0.70;;
77705;SDS011;66874;45.274;5.880;2023-04-08T14:49:21;1.58;;;0.80;;
77705;SDS011;66874;45.274;5.880;2023-04-08T14:51:46;1.50;;;0.82;;
77705;SDS011;66874;45.274;5.880;2023-04-08T14:54:11;1.33;;;0.60;;
77705;SDS011;66874;45.274;5.880;2023-04-08T14:56:38;2.45;;;0.88;;
77705;SDS011;66874;45.274;5.880;2023-04-08T14:59:03;1.90;;;0.70;;
77705;SDS011;66874;45.274;5.880;2023-04-08T15:01:29;1.58;;;0.70;;
77705;SDS011;66874;45.274;5.880;2023-04-08T15:03:57;1.27;;;0.80;;
77705;SDS011;66874;45.274;5.880;2023-04-08T15:06:23;3.35;;;1.30;;
77705;SDS011;66874;45.274;5.880;2023-04-08T15:08:48;3.58;;;0.80;;
77705;SDS011;66874;45.274;5.880;2023-04-08T15:11:14;1.00;;;0.70;;
77705;SDS011;66874;45.274;5.880;2023-04-08T15:13:39;0.85;;;0.63;;
77705;SDS011;66874;45.274;5.880;2023-04-08T15:16:05;0.88;;;0.60;;
77705;SDS011;66874;45.274;5.880;2023-04-08T15:18:30;1.13;;;0.75;;
77705;SDS011;66874;45.274;5.880;2023-04-08T15:20:55;1.98;;;0.75;;
77705;SDS011;66874;45.274;5.880;2023-04-08T15:23:22;0.90;;;0.65;;
77705;SDS011;66874;45.274;5.880;2023-04-08T15:25:48;1.10;;;0.75;;
77705;SDS011;66874;45.274;5.880;2023-04-08T15:28:13;1.67;;;0.98;;
77705;SDS011;66874;45.274;5.880;2023-04-08T15:30:38;1.45;;;0.80;;
77705;SDS011;66874;45.274;5.880;2023-04-08T15:33:04;0.60;;;0.50;;
77705;SDS011;66874;45.274;5.880;2023-04-08T15:35:30;1.15;;;0.60;;
77705;SDS011;66874;45.274;5.880;2023-04-08T15:37:55;2.20;;;0.63;;
77705;SDS011;66874;45.274;5.880;2023-04-08T15:40:21;4.63;;;0.70;;
77705;SDS011;66874;45.274;5.880;2023-04-08T15:42:46;4.25;;;0.90;;
77705;SDS011;66874;45.274;5.880;2023-04-08T15:45:12;1.23;;;0.73;;
77705;SDS011;66874;45.274;5.880;2023-04-08T15:47:37;0.68;;;0.60;;
77705;SDS011;66874;45.274;5.880;2023-04-08T15:50:03;2.00;;;0.60;;
77705;SDS011;66874;45.274;5.880;2023-04-08T15:52:28;1.48;;;0.60;;
77705;SDS011;66874;45.274;5.880;2023-04-08T15:54:54;0.70;;;0.63;;
77705;SDS011;66874;45.274;5.880;2023-04-08T15:57:19;1.90;;;0.57;;
77705;SDS011;66874;45.274;5.880;2023-04-08T15:59:50;3.30;;;1.00;;
77705;SDS011;66874;45.274;5.880;2023-04-08T16:02:16;0.65;;;0.57;;
77705;SDS011;66874;45.274;5.880;2023-04-08T16:04:42;1.17;;;0.80;;
77705;SDS011;66874;45.274;5.880;2023-04-08T16:07:07;0.75;;;0.50;;
77705;SDS011;66874;45.274;5.880;2023-04-08T16:09:33;1.70;;;0.40;;
77705;SDS011;66874;45.274;5.880;2023-04-08T16:11:58;2.03;;;0.55;;
77705;SDS011;66874;45.274;5.880;2023-04-08T16:14:24;1.00;;;0.40;;
77705;SDS011;66874;45.274;5.880;2023-04-08T16:16:49;0.47;;;0.40;;
77705;SDS011;66874;45.274;5.880;2023-04-08T16:19:15;1.58;;;0.60;;
77705;SDS011;66874;45.274;5.880;2023-04-08T16:21:40;1.50;;;0.68;;
77705;SDS011;66874;45.274;5.880;2023-04-08T16:24:06;1.85;;;0.75;;
77705;SDS011;66874;45.274;5.880;2023-04-08T16:26:32;1.70;;;0.50;;
77705;SDS011;66874;45.274;5.880;2023-04-08T16:28:58;0.50;;;0.50;;
77705;SDS011;66874;45.274;5.880;2023-04-08T16:31:23;0.55;;;0.40;;
77705;SDS011;66874;45.274;5.880;2023-04-08T16:33:49;0.90;;;0.50;;
77705;SDS011;66874;45.274;5.880;2023-04-08T16:36:14;0.45;;;0.40;;
77705;SDS011;66874;45.274;5.880;2023-04-08T16:38:39;0.75;;;0.50;;
77705;SDS011;66874;45.274;5.880;2023-04-08T16:41:05;0.70;;;0.50;;
77705;SDS011;66874;45.274;5.880;2023-04-08T16:43:33;0.50;;;0.40;;
77705;SDS011;66874;45.274;5.880;2023-04-08T16:46:07;1.67;;;0.52;;
77705;SDS011;66874;45.274;5.880;2023-04-08T16:48:34;0.88;;;0.60;;
77705;SDS011;66874;45.274;5.880;2023-04-08T16:51:02;1.83;;;0.80;;
77705;SDS011;66874;45.274;5.880;2023-04-08T16:53:28;0.73;;;0.50;;
77705;SDS011;66874;45.274;5.880;2023-04-08T16:55:54;1.20;;;0.65;;
77705;SDS011;66874;45.274;5.880;2023-04-08T16:58:19;0.75;;;0.47;;
77705;SDS011;66874;45.274;5.880;2023-04-08T17:00:45;0.70;;;0.50;;
77705;SDS011;66874;45.274;5.880;2023-04-08T17:03:10;1.25;;;0.55;;
77705;SDS011;66874;45.274;5.880;2023-04-08T17:05:36;2.53;;;0.70;;
77705;SDS011;66874;45.274;5.880;2023-04-08T17:08:02;3.83;;;0.75;;
77705;SDS011;66874;45.274;5.880;2023-04-08T17:10:27;1.77;;;0.80;;
77705;SDS011;66874;45.274;5.880;2023-04-08T17:12:53;1.15;;;0.80;;
77705;SDS011;66874;45.274;5.880;2023-04-08T17:15:18;1.60;;;0.60;;
77705;SDS011;66874;45.274;5.880;2023-04-08T17:17:44;0.55;;;0.50;;
77705;SDS011;66874;45.274;5.880;2023-04-08T17:20:09;1.35;;;0.77;;
77705;SDS011;66874;45.274;5.880;2023-04-08T17:22:35;1.58;;;0.68;;
77705;SDS011;66874;45.274;5.880;2023-04-08T17:25:00;1.20;;;0.55;;
77705;SDS011;66874;45.274;5.880;2023-04-08T17:27:26;4.57;;;0.88;;
77705;SDS011;66874;45.274;5.880;2023-04-08T17:29:51;7.70;;;1.17;;
77705;SDS011;66874;45.274;5.880;2023-04-08T17:32:21;1.05;;;0.50;;
77705;SDS011;66874;45.274;5.880;2023-04-08T17:34:50;1.13;;;0.60;;
77705;SDS011;66874;45.274;5.880;2023-04-08T17:37:16;0.90;;;0.65;;
77705;SDS011;66874;45.274;5.880;2023-04-08T17:39:41;0.77;;;0.47;;
77705;SDS011;66874;45.274;5.880;2023-04-08T17:42:08;0.85;;;0.57;;
77705;SDS011;66874;45.274;5.880;2023-04-08T17:44:34;1.67;;;0.85;;
77705;SDS011;66874;45.274;5.880;2023-04-08T17:47:00;0.70;;;0.55;;
77705;SDS011;66874;45.274;5.880;2023-04-08T17:49:26;0.60;;;0.50;;
77705;SDS011;66874;45.274;5.880;2023-04-08T17:51:53;1.15;;;0.98;;
77705;SDS011;66874;45.274;5.880;2023-04-08T17:54:18;0.65;;;0.60;;
77705;SDS011;66874;45.274;5.880;2023-04-08T17:56:44;1.10;;;0.57;;
77705;SDS011;66874;45.274;5.880;2023-04-08T17:59:09;1.63;;;0.50;;
77705;SDS011;66874;45.274;5.880;2023-04-08T18:01:35;0.93;;;0.50;;
77705;SDS011;66874;45.274;5.880;2023-04-08T18:04:01;1.13;;;0.63;;
77705;SDS011;66874;45.274;5.880;2023-04-08T18:06:29;0.68;;;0.60;;
77705;SDS011;66874;45.274;5.880;2023-04-08T18:08:55;1.23;;;0.50;;
77705;SDS011;66874;45.274;5.880;2023-04-08T18:11:21;1.25;;;0.77;;
77705;SDS011;66874;45.274;5.880;2023-04-08T18:13:50;0.80;;;0.68;;
77705;SDS011;66874;45.274;5.880;2023-04-08T18:16:19;1.67;;;0.93;;
77705;SDS011;66874;45.274;5.880;2023-04-08T18:18:46;1.15;;;0.73;;
77705;SDS011;66874;45.274;5.880;2023-04-08T18:21:12;2.85;;;0.90;;
77705;SDS011;66874;45.274;5.880;2023-04-08T18:23:39;2.05;;;0.82;;
77705;SDS011;66874;45.274;5.880;2023-04-08T18:26:05;1.20;;;0.70;;
77705;SDS011;66874;45.274;5.880;2023-04-08T18:28:31;1.63;;;1.10;;
77705;SDS011;66874;45.274;5.880;2023-04-08T18:30:56;1.73;;;0.80;;
77705;SDS011;66874;45.274;5.880;2023-04-08T18:33:21;2.50;;;0.88;;
77705;SDS011;66874;45.274;5.880;2023-04-08T18:35:47;2.47;;;0.95;;
77705;SDS011;66874;45.274;5.880;2023-04-08T18:38:12;1.40;;;1.10;;
77705;SDS011;66874;45.274;5.880;2023-04-08T18:40:37;1.67;;;1.30;;
77705;SDS011;66874;45.274;5.880;2023-04-08T18:43:03;1.45;;;1.10;;
77705;SDS011;66874;45.274;5.880;2023-04-08T18:45:29;2.08;;;1.20;;
77705;SDS011;66874;45.274;5.880;2023-04-08T18:47:55;2.50;;;2.00;;
77705;SDS011;66874;45.274;5.880;2023-04-08T18:50:21;4.50;;;2.17;;
77705;SDS011;66874;45.274;5.880;2023-04-08T18:52:46;8.25;;;4.55;;
77705;SDS011;66874;45.274;5.880;2023-04-08T18:55:12;12.20;;;7.55;;
77705;SDS011;66874;45.274;5.880;2023-04-08T18:57:37;18.73;;;10.55;;
77705;SDS011;66874;45.274;5.880;2023-04-08T19:00:03;20.88;;;12.48;;
77705;SDS011;66874;45.274;5.880;2023-04-08T19:02:29;16.50;;;10.32;;
77705;SDS011;66874;45.274;5.880;2023-04-08T19:04:54;12.10;;;7.50;;
77705;SDS011;66874;45.274;5.880;2023-04-08T19:07:20;10.27;;;7.13;;
77705;SDS011;66874;45.274;5.880;2023-04-08T19:09:46;12.15;;;6.40;;
77705;SDS011;66874;45.274;5.880;2023-04-08T19:12:11;13.43;;;7.63;;
77705;SDS011;66874;45.274;5.880;2023-04-08T19:14:36;37.63;;;18.40;;
77705;SDS011;66874;45.274;5.880;2023-04-08T19:17:02;26.40;;;10.80;;
77705;SDS011;66874;45.274;5.880;2023-04-08T19:19:27;16.25;;;9.77;;
77705;SDS011;66874;45.274;5.880;2023-04-08T19:21:53;10.90;;;5.65;;
77705;SDS011;66874;45.274;5.880;2023-04-08T19:24:19;6.28;;;3.97;;
77705;SDS011;66874;45.274;5.880;2023-04-08T19:26:45;11.32;;;5.95;;
77705;SDS011;66874;45.274;5.880;2023-04-08T19:29:10;13.38;;;8.38;;
77705;SDS011;66874;45.274;5.880;2023-04-08T19:31:37;13.25;;;8.10;;
77705;SDS011;66874;45.274;5.880;2023-04-08T19:34:02;14.63;;;9.02;;
77705;SDS011;66874;45.274;5.880;2023-04-08T19:36:28;20.00;;;10.70;;
77705;SDS011;66874;45.274;5.880;2023-04-08T19:38:53;19.27;;;10.05;;
77705;SDS011;66874;45.274;5.880;2023-04-08T19:41:19;17.38;;;9.50;;
77705;SDS011;66874;45.274;5.880;2023-04-08T19:43:45;15.85;;;9.50;;
77705;SDS011;66874;45.274;5.880;2023-04-08T19:46:11;13.90;;;8.65;;
77705;SDS011;66874;45.274;5.880;2023-04-08T19:48:37;9.40;;;6.25;;
77705;SDS011;66874;45.274;5.880;2023-04-08T19:51:02;7.82;;;4.32;;
77705;SDS011;66874;45.274;5.880;2023-04-08T19:53:30;5.85;;;3.50;;
77705;SDS011;66874;45.274;5.880;2023-04-08T19:56:01;6.15;;;3.55;;
77705;SDS011;66874;45.274;5.880;2023-04-08T19:58:27;6.68;;;4.03;;
77705;SDS011;66874;45.274;5.880;2023-04-08T20:00:52;11.25;;;5.97;;
77705;SDS011;66874;45.274;5.880;2023-04-08T20:03:18;24.48;;;11.52;;